sensor_id;sensor_type;location;lat;lon;timestamp;P1;P2;P0
73825;PMS5003;64145;55.060;73.168;2023-08-12T00:00:49;0.00;0.00;0.00
73825;PMS5003;64145;55.060;73.168;2023-08-12T00:03:15;1.00;0.00;0.00
73825;PMS5003;64145;55.060;73.168;2023-08-12T00:05:41;0.00;0.00;0.00
73825;PMS5003;64145;55.060;73.168;2023-08-12T00:08:08;0.00;0.00;0.00
73825;PMS5003;64145;55.060;73.168;2023-08-12T00:10:34;0.00;0.00;0.00
73825;PMS5003;64145;55.060;73.168;2023-08-12T00:12:59;0.00;0.00;0.00
73825;PMS5003;64145;55.060;73.168;2023-08-12T00:15:25;0.00;0.00;0.00
73825;PMS5003;64145;55.060;73.168;2023-08-12T00:17:51;8.00;6.67;1.00
73825;PMS5003;64145;55.060;73.168;2023-08-12T00:20:17;4.75;3.75;1.00
73825;PMS5003;64145;55.060;73.168;2023-08-12T00:22:43;8.33;7.33;4.33
73825;PMS5003;64145;55.060;73.168;2023-08-12T00:25:08;15.00;13.00;7.00
73825;PMS5003;64145;55.060;73.168;2023-08-12T00:27:34;13.00;9.00;4.00
73825;PMS5003;64145;55.060;73.168;2023-08-12T00:30:00;8.00;5.33;4.00
73825;PMS5003;64145;55.060;73.168;2023-08-12T00:32:26;7.00;6.00;3.00
73825;PMS5003;64145;55.060;73.168;2023-08-12T00:34:51;3.67;3.67;1.00
73825;PMS5003;64145;55.060;73.168;2023-08-12T00:37:17;1.00;1.00;0.00
73825;PMS5003;64145;55.060;73.168;2023-08-12T00:39:43;0.00;0.00;0.00
73825;PMS5003;64145;55.060;73.168;2023-08-12T00:42:08;0.00;0.00;0.00
73825;PMS5003;64145;55.060;73.168;2023-08-12T00:44:34;0.00;0.00;0.00
73825;PMS5003;64145;55.060;73.168;2023-08-12T00:46:59;0.00;0.00;0.00
73825;PMS5003;64145;55.060;73.168;2023-08-12T00:49:25;0.00;0.00;0.00
73825;PMS5003;64145;55.060;73.168;2023-08-12T00:51:53;0.00;0.00;0.00
73825;PMS5003;64145;55.060;73.168;2023-08-12T00:54:20;0.00;0.00;0.00
73825;PMS5003;64145;55.060;73.168;2023-08-12T00:56:48;0.00;0.00;0.00
73825;PMS5003;64145;55.060;73.168;2023-08-12T00:59:14;0.00;0.00;0.00
73825;PMS5003;64145;55.060;73.168;2023-08-12T01:01:40;0.00;0.00;0.00
73825;PMS5003;64145;55.060;73.168;2023-08-12T01:04:09;0.00;0.00;0.00
73825;PMS5003;64145;55.060;73.168;2023-08-12T01:06:34;0.00;0.00;0.00
73825;PMS5003;64145;55.060;73.168;2023-08-12T01:09:01;0.00;0.00;0.00
73825;PMS5003;64145;55.060;73.168;2023-08-12T01:11:33;0.00;0.00;0.00
73825;PMS5003;64145;55.060;73.168;2023-08-12T01:14:08;0.00;0.00;0.00
73825;PMS5003;64145;55.060;73.168;2023-08-12T01:16:51;0.00;0.00;0.00
73825;PMS5003;64145;55.060;73.168;2023-08-12T01:19:22;0.00;0.00;0.00
73825;PMS5003;64145;55.060;73.168;2023-08-12T01:21:50;0.00;0.00;0.00
73825;PMS5003;64145;55.060;73.168;2023-08-12T01:24:19;0.00;0.00;0.00
73825;PMS5003;64145;55.060;73.168;2023-08-12T01:26:45;0.00;0.00;0.00
73825;PMS5003;64145;55.060;73.168;2023-08-12T01:29:10;0.00;0.00;0.00
73825;PMS5003;64145;55.060;73.168;2023-08-12T01:31:48;1.00;1.00;0.00
73825;PMS5003;64145;55.060;73.168;2023-08-12T01:34:39;1.25;1.00;0.00
73825;PMS5003;64145;55.060;73.168;2023-08-12T01:37:05;4.00;3.00;0.00
73825;PMS5003;64145;55.060;73.168;2023-08-12T01:39:34;7.00;6.00;0.00
73825;PMS5003;64145;55.060;73.168;2023-08-12T01:42:00;7.50;7.00;3.00
73825;PMS5003;64145;55.060;73.168;2023-08-12T01:44:26;2.00;2.00;0.75
73825;PMS5003;64145;55.060;73.168;2023-08-12T01:46:52;1.00;1.00;0.00
73825;PMS5003;64145;55.060;73.168;2023-08-12T01:49:19;2.25;1.00;0.00
73825;PMS5003;64145;55.060;73.168;2023-08-12T01:51:46;1.00;0.00;0.00
73825;PMS5003;64145;55.060;73.168;2023-08-12T01:54:12;0.00;0.00;0.00
73825;PMS5003;64145;55.060;73.168;2023-08-12T01:56:38;1.00;1.00;0.00
73825;PMS5003;64145;55.060;73.168;2023-08-12T01:59:03;1.00;1.00;0.00
73825;PMS5003;64145;55.060;73.168;2023-08-12T02:01:29;1.00;1.00;0.00
73825;PMS5003;64145;55.060;73.168;2023-08-12T02:03:54;1.00;1.00;0.00
73825;PMS5003;64145;55.060;73.168;2023-08-12T02:06:20;2.00;1.33;0.00
73825;PMS5003;64145;55.060;73.168;2023-08-12T02:08:45;0.00;0.00;0.00
73825;PMS5003;64145;55.060;73.168;2023-08-12T02:11:11;0.67;0.00;0.00
73825;PMS5003;64145;55.060;73.168;2023-08-12T02:13:37;0.00;0.00;0.00
73825;PMS5003;64145;55.060;73.168;2023-08-12T02:16:02;1.00;0.00;0.00
73825;PMS5003;64145;55.060;73.168;2023-08-12T02:18:28;0.00;0.00;0.00
73825;PMS5003;64145;55.060;73.168;2023-08-12T02:20:53;1.00;1.00;0.00
73825;PMS5003;64145;55.060;73.168;2023-08-12T02:23:19;2.00;2.00;0.00
73825;PMS5003;64145;55.060;73.168;2023-08-12T02:25:44;2.33;2.33;0.00
73825;PMS5003;64145;55.060;73.168;2023-08-12T02:28:10;2.33;1.33;0.00
73825;PMS5003;64145;55.060;73.168;2023-08-12T02:30:36;4.33;3.67;0.00
73825;PMS5003;64145;55.060;73.168;2023-08-12T02:33:01;9.00;9.00;2.00
73825;PMS5003;64145;55.060;73.168;2023-08-12T02:35:27;11.00;10.00;5.00
73825;PMS5003;64145;55.060;73.168;2023-08-12T02:37:53;17.33;14.33;9.00
73825;PMS5003;64145;55.060;73.168;2023-08-12T02:40:18;17.00;15.00;9.00
73825;PMS5003;64145;55.060;73.168;2023-08-12T02:42:44;12.00;10.33;4.33
73825;PMS5003;64145;55.060;73.168;2023-08-12T02:45:09;5.00;5.00;2.00
73825;PMS5003;64145;55.060;73.168;2023-08-12T02:47:35;4.00;3.00;0.33
73825;PMS5003;64145;55.060;73.168;2023-08-12T02:50:00;1.00;1.00;0.00
73825;PMS5003;64145;55.060;73.168;2023-08-12T02:52:27;1.75;1.00;0.00
73825;PMS5003;64145;55.060;73.168;2023-08-12T02:54:53;1.67;1.67;0.00
73825;PMS5003;64145;55.060;73.168;2023-08-12T02:57:20;2.00;2.00;0.00
73825;PMS5003;64145;55.060;73.168;2023-08-12T02:59:46;1.00;0.00;0.00
73825;PMS5003;64145;55.060;73.168;2023-08-12T03:02:11;1.00;1.00;0.00
73825;PMS5003;64145;55.060;73.168;2023-08-12T03:04:37;2.00;1.00;0.00
73825;PMS5003;64145;55.060;73.168;2023-08-12T03:07:02;1.00;0.00;0.00
73825;PMS5003;64145;55.060;73.168;2023-08-12T03:09:28;2.00;2.00;0.00
73825;PMS5003;64145;55.060;73.168;2023-08-12T03:11:54;1.00;1.00;0.00
73825;PMS5003;64145;55.060;73.168;2023-08-12T03:14:19;1.00;1.00;0.00
73825;PMS5003;64145;55.060;73.168;2023-08-12T03:16:45;1.33;1.00;0.00
73825;PMS5003;64145;55.060;73.168;2023-08-12T03:19:10;0.00;0.00;0.00
73825;PMS5003;64145;55.060;73.168;2023-08-12T03:21:36;1.00;0.00;0.00
73825;PMS5003;64145;55.060;73.168;2023-08-12T03:24:01;0.00;0.00;0.00
73825;PMS5003;64145;55.060;73.168;2023-08-12T03:26:27;0.00;0.00;0.00
73825;PMS5003;64145;55.060;73.168;2023-08-12T03:28:53;1.00;1.00;0.00
73825;PMS5003;64145;55.060;73.168;2023-08-12T03:31:18;0.00;0.00;0.00
73825;PMS5003;64145;55.060;73.168;2023-08-12T03:33:44;1.00;1.00;0.00
73825;PMS5003;64145;55.060;73.168;2023-08-12T03:36:09;0.00;0.00;0.00
73825;PMS5003;64145;55.060;73.168;2023-08-12T03:38:35;0.00;0.00;0.00
73825;PMS5003;64145;55.060;73.168;2023-08-12T03:41:01;0.00;0.00;0.00
73825;PMS5003;64145;55.060;73.168;2023-08-12T03:43:27;0.00;0.00;0.00
73825;PMS5003;64145;55.060;73.168;2023-08-12T03:45:53;0.00;0.00;0.00
73825;PMS5003;64145;55.060;73.168;2023-08-12T03:48:18;0.67;0.67;0.00
73825;PMS5003;64145;55.060;73.168;2023-08-12T03:50:44;0.00;0.00;0.00
73825;PMS5003;64145;55.060;73.168;2023-08-12T03:53:12;0.00;0.00;0.00
73825;PMS5003;64145;55.060;73.168;2023-08-12T03:55:37;0.00;0.00;0.00
73825;PMS5003;64145;55.060;73.168;2023-08-12T03:58:03;0.00;0.00;0.00
73825;PMS5003;64145;55.060;73.168;2023-08-12T04:00:29;0.00;0.00;0.00
73825;PMS5003;64145;55.060;73.168;2023-08-12T04:02:54;4.33;2.00;0.00
73825;PMS5003;64145;55.060;73.168;2023-08-12T04:05:20;1.00;1.00;0.00
73825;PMS5003;64145;55.060;73.168;2023-08-12T04:07:46;0.00;0.00;0.00
73825;PMS5003;64145;55.060;73.168;2023-08-12T04:10:11;0.00;0.00;0.00
73825;PMS5003;64145;55.060;73.168;2023-08-12T04:12:37;0.00;0.00;0.00
73825;PMS5003;64145;55.060;73.168;2023-08-12T04:15:03;0.00;0.00;0.00
73825;PMS5003;64145;55.060;73.168;2023-08-12T04:17:31;0.00;0.00;0.00
73825;PMS5003;64145;55.060;73.168;2023-08-12T04:19:56;0.00;0.00;0.00
73825;PMS5003;64145;55.060;73.168;2023-08-12T04:22:22;0.00;0.00;0.00
73825;PMS5003;64145;55.060;73.168;2023-08-12T04:24:47;0.00;0.00;0.00
73825;PMS5003;64145;55.060;73.168;2023-08-12T04:27:13;0.00;0.00;0.00
73825;PMS5003;64145;55.060;73.168;2023-08-12T04:29:38;0.00;0.00;0.00
73825;PMS5003;64145;55.060;73.168;2023-08-12T04:32:04;0.00;0.00;0.00
73825;PMS5003;64145;55.060;73.168;2023-08-12T04:34:30;0.00;0.00;0.00
73825;PMS5003;64145;55.060;73.168;2023-08-12T04:36:55;0.00;0.00;0.00
73825;PMS5003;64145;55.060;73.168;2023-08-12T04:39:21;0.00;0.00;0.00
73825;PMS5003;64145;55.060;73.168;2023-08-12T04:41:47;0.00;0.00;0.00
73825;PMS5003;64145;55.060;73.168;2023-08-12T04:44:13;0.00;0.00;0.00
73825;PMS5003;64145;55.060;73.168;2023-08-12T04:46:38;0.67;0.67;0.00
73825;PMS5003;64145;55.060;73.168;2023-08-12T04:49:04;0.00;0.00;0.00
73825;PMS5003;64145;55.060;73.168;2023-08-12T04:51:30;0.00;0.00;0.00
73825;PMS5003;64145;55.060;73.168;2023-08-12T04:53:56;0.00;0.00;0.00
73825;PMS5003;64145;55.060;73.168;2023-08-12T04:56:23;0.00;0.00;0.00
73825;PMS5003;64145;55.060;73.168;2023-08-12T04:58:49;0.00;0.00;0.00
73825;PMS5003;64145;55.060;73.168;2023-08-12T05:01:15;0.00;0.00;0.00
73825;PMS5003;64145;55.060;73.168;2023-08-12T05:03:41;0.00;0.00;0.00
73825;PMS5003;64145;55.060;73.168;2023-08-12T05:06:06;0.00;0.00;0.00
73825;PMS5003;64145;55.060;73.168;2023-08-12T05:08:32;0.00;0.00;0.00
73825;PMS5003;64145;55.060;73.168;2023-08-12T05:10:58;0.00;0.00;0.00
73825;PMS5003;64145;55.060;73.168;2023-08-12T05:13:24;0.00;0.00;0.00
73825;PMS5003;64145;55.060;73.168;2023-08-12T05:15:49;0.00;0.00;0.00
73825;PMS5003;64145;55.060;73.168;2023-08-12T05:18:15;0.00;0.00;0.00
73825;PMS5003;64145;55.060;73.168;2023-08-12T05:20:42;0.00;0.00;0.00
73825;PMS5003;64145;55.060;73.168;2023-08-12T05:23:09;0.00;0.00;0.00
73825;PMS5003;64145;55.060;73.168;2023-08-12T05:25:34;0.00;0.00;0.00
73825;PMS5003;64145;55.060;73.168;2023-08-12T05:28:00;0.00;0.00;0.00
73825;PMS5003;64145;55.060;73.168;2023-08-12T05:30:26;0.00;0.00;0.00
73825;PMS5003;64145;55.060;73.168;2023-08-12T05:32:51;0.00;0.00;0.00
73825;PMS5003;64145;55.060;73.168;2023-08-12T05:35:17;0.00;0.00;0.00
73825;PMS5003;64145;55.060;73.168;2023-08-12T05:37:42;0.00;0.00;0.00
73825;PMS5003;64145;55.060;73.168;2023-08-12T05:40:08;0.00;0.00;0.00
73825;PMS5003;64145;55.060;73.168;2023-08-12T05:42:34;0.00;0.00;0.00
73825;PMS5003;64145;55.060;73.168;2023-08-12T05:45:00;0.00;0.00;0.00
73825;PMS5003;64145;55.060;73.168;2023-08-12T05:47:26;0.00;0.00;0.00
73825;PMS5003;64145;55.060;73.168;2023-08-12T05:49:51;0.00;0.00;0.00
73825;PMS5003;64145;55.060;73.168;2023-08-12T05:52:17;0.00;0.00;0.00
73825;PMS5003;64145;55.060;73.168;2023-08-12T05:54:42;0.00;0.00;0.00
73825;PMS5003;64145;55.060;73.168;2023-08-12T05:57:08;0.00;0.00;0.00
73825;PMS5003;64145;55.060;73.168;2023-08-12T05:59:33;0.00;0.00;0.00
73825;PMS5003;64145;55.060;73.168;2023-08-12T06:01:59;0.00;0.00;0.00
73825;PMS5003;64145;55.060;73.168;2023-08-12T06:04:24;0.00;0.00;0.00
73825;PMS5003;64145;55.060;73.168;2023-08-12T06:06:50;0.00;0.00;0.00
73825;PMS5003;64145;55.060;73.168;2023-08-12T06:09:16;0.00;0.00;0.00
73825;PMS5003;64145;55.060;73.168;2023-08-12T06:11:41;0.00;0.00;0.00
73825;PMS5003;64145;55.060;73.168;2023-08-12T06:14:07;0.00;0.00;0.00
73825;PMS5003;64145;55.060;73.168;2023-08-12T06:16:32;0.00;0.00;0.00
73825;PMS5003;64145;55.060;73.168;2023-08-12T06:18:58;0.00;0.00;0.00
73825;PMS5003;64145;55.060;73.168;2023-08-12T06:21:23;0.00;0.00;0.00
73825;PMS5003;64145;55.060;73.168;2023-08-12T06:23:49;0.00;0.00;0.00
73825;PMS5003;64145;55.060;73.168;2023-08-12T06:26:14;0.00;0.00;0.00
73825;PMS5003;64145;55.060;73.168;2023-08-12T06:28:40;0.00;0.00;0.00
73825;PMS5003;64145;55.060;73.168;2023-08-12T06:31:06;0.00;0.00;0.00
73825;PMS5003;64145;55.060;73.168;2023-08-12T06:33:31;0.00;0.00;0.00
73825;PMS5003;64145;55.060;73.168;2023-08-12T06:35:57;0.00;0.00;0.00
73825;PMS5003;64145;55.060;73.168;2023-08-12T06:38:22;0.00;0.00;0.00
73825;PMS5003;64145;55.060;73.168;2023-08-12T06:40:48;0.00;0.00;0.00
73825;PMS5003;64145;55.060;73.168;2023-08-12T06:43:13;0.00;0.00;0.00
73825;PMS5003;64145;55.060;73.168;2023-08-12T06:45:39;0.00;0.00;0.00
73825;PMS5003;64145;55.060;73.168;2023-08-12T06:48:05;0.00;0.00;0.00
73825;PMS5003;64145;55.060;73.168;2023-08-12T06:50:30;0.00;0.00;0.00
73825;PMS5003;64145;55.060;73.168;2023-08-12T06:52:58;0.00;0.00;0.00
73825;PMS5003;64145;55.060;73.168;2023-08-12T06:55:24;0.00;0.00;0.00
73825;PMS5003;64145;55.060;73.168;2023-08-12T06:57:50;0.00;0.00;0.00
73825;PMS5003;64145;55.060;73.168;2023-08-12T07:00:15;0.00;0.00;0.00
73825;PMS5003;64145;55.060;73.168;2023-08-12T07:02:41;0.00;0.00;0.00
73825;PMS5003;64145;55.060;73.168;2023-08-12T07:05:08;0.00;0.00;0.00
73825;PMS5003;64145;55.060;73.168;2023-08-12T07:07:34;1.00;0.00;0.00
73825;PMS5003;64145;55.060;73.168;2023-08-12T07:10:00;0.00;0.00;0.00
73825;PMS5003;64145;55.060;73.168;2023-08-12T07:12:25;0.00;0.00;0.00
73825;PMS5003;64145;55.060;73.168;2023-08-12T07:14:51;0.00;0.00;0.00
73825;PMS5003;64145;55.060;73.168;2023-08-12T07:17:17;3.00;3.00;1.00
73825;PMS5003;64145;55.060;73.168;2023-08-12T07:19:43;5.00;5.00;2.00
73825;PMS5003;64145;55.060;73.168;2023-08-12T07:22:08;2.00;2.00;1.00
73825;PMS5003;64145;55.060;73.168;2023-08-12T07:24:34;0.00;0.00;0.00
73825;PMS5003;64145;55.060;73.168;2023-08-12T07:26:59;1.00;1.00;0.00
73825;PMS5003;64145;55.060;73.168;2023-08-12T07:29:25;0.00;0.00;0.00
73825;PMS5003;64145;55.060;73.168;2023-08-12T07:31:51;0.00;0.00;0.00
73825;PMS5003;64145;55.060;73.168;2023-08-12T07:34:17;1.00;0.00;0.00
73825;PMS5003;64145;55.060;73.168;2023-08-12T07:36:43;0.00;0.00;0.00
73825;PMS5003;64145;55.060;73.168;2023-08-12T07:39:09;0.00;0.00;0.00
73825;PMS5003;64145;55.060;73.168;2023-08-12T07:41:35;0.00;0.00;0.00
73825;PMS5003;64145;55.060;73.168;2023-08-12T07:44:01;0.00;0.00;0.00
73825;PMS5003;64145;55.060;73.168;2023-08-12T07:46:27;0.00;0.00;0.00
73825;PMS5003;64145;55.060;73.168;2023-08-12T07:48:53;0.00;0.00;0.00
73825;PMS5003;64145;55.060;73.168;2023-08-12T07:51:19;0.00;0.00;0.00
73825;PMS5003;64145;55.060;73.168;2023-08-12T07:53:44;0.00;0.00;0.00
73825;PMS5003;64145;55.060;73.168;2023-08-12T07:56:10;0.00;0.00;0.00
73825;PMS5003;64145;55.060;73.168;2023-08-12T07:58:36;0.00;0.00;0.00
73825;PMS5003;64145;55.060;73.168;2023-08-12T08:01:01;0.00;0.00;0.00
73825;PMS5003;64145;55.060;73.168;2023-08-12T08:03:27;0.00;0.00;0.00
73825;PMS5003;64145;55.060;73.168;2023-08-12T08:05:52;0.00;0.00;0.00
73825;PMS5003;64145;55.060;73.168;2023-08-12T08:08:18;2.00;1.00;0.00
73825;PMS5003;64145;55.060;73.168;2023-08-12T08:10:45;0.00;0.00;0.00
73825;PMS5003;64145;55.060;73.168;2023-08-12T08:13:10;0.00;0.00;0.00
73825;PMS5003;64145;55.060;73.168;2023-08-12T08:15:36;0.00;0.00;0.00
73825;PMS5003;64145;55.060;73.168;2023-08-12T08:18:02;0.00;0.00;0.00
73825;PMS5003;64145;55.060;73.168;2023-08-12T08:20:29;0.00;0.00;0.00
73825;PMS5003;64145;55.060;73.168;2023-08-12T08:22:56;0.00;0.00;0.00
73825;PMS5003;64145;55.060;73.168;2023-08-12T08:25:22;0.00;0.00;0.00
73825;PMS5003;64145;55.060;73.168;2023-08-12T08:27:47;0.00;0.00;0.00
73825;PMS5003;64145;55.060;73.168;2023-08-12T08:30:13;0.00;0.00;0.00
73825;PMS5003;64145;55.060;73.168;2023-08-12T08:32:38;0.00;0.00;0.00
73825;PMS5003;64145;55.060;73.168;2023-08-12T08:35:04;0.00;0.00;0.00
73825;PMS5003;64145;55.060;73.168;2023-08-12T08:37:34;0.00;0.00;0.00
73825;PMS5003;64145;55.060;73.168;2023-08-12T08:39:59;0.00;0.00;0.00
73825;PMS5003;64145;55.060;73.168;2023-08-12T08:42:25;0.00;0.00;0.00
73825;PMS5003;64145;55.060;73.168;2023-08-12T08:44:51;0.00;0.00;0.00
73825;PMS5003;64145;55.060;73.168;2023-08-12T08:47:18;0.00;0.00;0.00
73825;PMS5003;64145;55.060;73.168;2023-08-12T08:49:44;0.00;0.00;0.00
73825;PMS5003;64145;55.060;73.168;2023-08-12T08:52:10;0.00;0.00;0.00
73825;PMS5003;64145;55.060;73.168;2023-08-12T08:54:36;0.00;0.00;0.00
73825;PMS5003;64145;55.060;73.168;2023-08-12T08:57:02;0.00;0.00;0.00
73825;PMS5003;64145;55.060;73.168;2023-08-12T08:59:28;0.00;0.00;0.00
73825;PMS5003;64145;55.060;73.168;2023-08-12T09:01:53;0.00;0.00;0.00
73825;PMS5003;64145;55.060;73.168;2023-08-12T09:04:21;0.00;0.00;0.00
73825;PMS5003;64145;55.060;73.168;2023-08-12T09:06:47;0.00;0.00;0.00
73825;PMS5003;64145;55.060;73.168;2023-08-12T09:09:13;0.00;0.00;0.00
73825;PMS5003;64145;55.060;73.168;2023-08-12T09:11:41;0.00;0.00;0.00
73825;PMS5003;64145;55.060;73.168;2023-08-12T09:14:09;0.00;0.00;0.00
73825;PMS5003;64145;55.060;73.168;2023-08-12T09:16:34;0.00;0.00;0.00
73825;PMS5003;64145;55.060;73.168;2023-08-12T09:19:00;0.00;0.00;0.00
73825;PMS5003;64145;55.060;73.168;2023-08-12T09:21:25;0.00;0.00;0.00
73825;PMS5003;64145;55.060;73.168;2023-08-12T09:23:51;0.00;0.00;0.00
73825;PMS5003;64145;55.060;73.168;2023-08-12T09:26:17;0.00;0.00;0.00
73825;PMS5003;64145;55.060;73.168;2023-08-12T09:28:43;0.00;0.00;0.00
73825;PMS5003;64145;55.060;73.168;2023-08-12T09:31:30;0.00;0.00;0.00
73825;PMS5003;64145;55.060;73.168;2023-08-12T09:34:00;0.00;0.00;0.00
73825;PMS5003;64145;55.060;73.168;2023-08-12T09:36:28;0.00;0.00;0.00
73825;PMS5003;64145;55.060;73.168;2023-08-12T09:38:55;0.00;0.00;0.00
73825;PMS5003;64145;55.060;73.168;2023-08-12T09:41:22;0.00;0.00;0.00
73825;PMS5003;64145;55.060;73.168;2023-08-12T09:43:48;0.00;0.00;0.00
73825;PMS5003;64145;55.060;73.168;2023-08-12T09:46:16;0.00;0.00;0.00
73825;PMS5003;64145;55.060;73.168;2023-08-12T09:48:42;0.00;0.00;0.00
73825;PMS5003;64145;55.060;73.168;2023-08-12T09:51:08;0.00;0.00;0.00
73825;PMS5003;64145;55.060;73.168;2023-08-12T09:53:34;4.50;4.00;0.00
73825;PMS5003;64145;55.060;73.168;2023-08-12T09:56:04;1.33;0.67;0.00
73825;PMS5003;64145;55.060;73.168;2023-08-12T09:58:31;0.00;0.00;0.00
73825;PMS5003;64145;55.060;73.168;2023-08-12T10:00:57;0.00;0.00;0.00
73825;PMS5003;64145;55.060;73.168;2023-08-12T10:03:23;0.00;0.00;0.00
73825;PMS5003;64145;55.060;73.168;2023-08-12T10:05:50;0.00;0.00;0.00
73825;PMS5003;64145;55.060;73.168;2023-08-12T10:08:16;0.00;0.00;0.00
73825;PMS5003;64145;55.060;73.168;2023-08-12T10:10:43;0.00;0.00;0.00
73825;PMS5003;64145;55.060;73.168;2023-08-12T10:13:09;0.00;0.00;0.00
73825;PMS5003;64145;55.060;73.168;2023-08-12T10:15:35;0.00;0.00;0.00
73825;PMS5003;64145;55.060;73.168;2023-08-12T10:18:01;0.00;0.00;0.00
73825;PMS5003;64145;55.060;73.168;2023-08-12T10:20:28;0.00;0.00;0.00
73825;PMS5003;64145;55.060;73.168;2023-08-12T10:22:55;0.00;0.00;0.00
73825;PMS5003;64145;55.060;73.168;2023-08-12T10:25:20;0.00;0.00;0.00
73825;PMS5003;64145;55.060;73.168;2023-08-12T10:27:49;0.00;0.00;0.00
73825;PMS5003;64145;55.060;73.168;2023-08-12T10:30:15;0.00;0.00;0.00
73825;PMS5003;64145;55.060;73.168;2023-08-12T10:32:40;0.00;0.00;0.00
73825;PMS5003;64145;55.060;73.168;2023-08-12T10:35:06;0.00;0.00;0.00
73825;PMS5003;64145;55.060;73.168;2023-08-12T10:37:33;0.00;0.00;0.00
73825;PMS5003;64145;55.060;73.168;2023-08-12T10:40:02;0.00;0.00;0.00
73825;PMS5003;64145;55.060;73.168;2023-08-12T10:42:45;0.00;0.00;0.00
73825;PMS5003;64145;55.060;73.168;2023-08-12T10:45:12;0.00;0.00;0.00
73825;PMS5003;64145;55.060;73.168;2023-08-12T10:47:39;0.00;0.00;0.00
73825;PMS5003;64145;55.060;73.168;2023-08-12T10:50:05;0.00;0.00;0.00
73825;PMS5003;64145;55.060;73.168;2023-08-12T10:52:31;0.00;0.00;0.00
73825;PMS5003;64145;55.060;73.168;2023-08-12T10:55:43;0.00;0.00;0.00
73825;PMS5003;64145;55.060;73.168;2023-08-12T10:57:43;0.00;0.00;0.00
73825;PMS5003;64145;55.060;73.168;2023-08-12T11:00:15;0.00;0.00;0.00
73825;PMS5003;64145;55.060;73.168;2023-08-12T11:02:45;0.00;0.00;0.00
73825;PMS5003;64145;55.060;73.168;2023-08-12T11:05:11;0.00;0.00;0.00
73825;PMS5003;64145;55.060;73.168;2023-08-12T11:07:38;0.00;0.00;0.00
73825;PMS5003;64145;55.060;73.168;2023-08-12T11:12:36;0.00;0.00;0.00
73825;PMS5003;64145;55.060;73.168;2023-08-12T11:15:03;0.00;0.00;0.00
73825;PMS5003;64145;55.060;73.168;2023-08-12T11:17:33;0.00;0.00;0.00
73825;PMS5003;64145;55.060;73.168;2023-08-12T11:19:59;0.00;0.00;0.00
73825;PMS5003;64145;55.060;73.168;2023-08-12T11:22:25;0.00;0.00;0.00
73825;PMS5003;64145;55.060;73.168;2023-08-12T11:24:51;0.00;0.00;0.00
73825;PMS5003;64145;55.060;73.168;2023-08-12T11:27:19;0.00;0.00;0.00
73825;PMS5003;64145;55.060;73.168;2023-08-12T11:29:45;0.00;0.00;0.00
73825;PMS5003;64145;55.060;73.168;2023-08-12T11:32:10;0.00;0.00;0.00
73825;PMS5003;64145;55.060;73.168;2023-08-12T11:34:36;0.00;0.00;0.00
73825;PMS5003;64145;55.060;73.168;2023-08-12T11:37:03;0.00;0.00;0.00
73825;PMS5003;64145;55.060;73.168;2023-08-12T11:39:28;0.00;0.00;0.00
73825;PMS5003;64145;55.060;73.168;2023-08-12T11:41:55;0.00;0.00;0.00
73825;PMS5003;64145;55.060;73.168;2023-08-12T11:44:21;0.00;0.00;0.00
73825;PMS5003;64145;55.060;73.168;2023-08-12T11:46:47;1.25;0.50;0.00
73825;PMS5003;64145;55.060;73.168;2023-08-12T11:49:12;0.00;0.00;0.00
73825;PMS5003;64145;55.060;73.168;2023-08-12T11:51:38;0.50;0.50;0.00
73825;PMS5003;64145;55.060;73.168;2023-08-12T11:54:04;1.00;0.00;0.00
73825;PMS5003;64145;55.060;73.168;2023-08-12T11:56:30;0.00;0.00;0.00
73825;PMS5003;64145;55.060;73.168;2023-08-12T11:58:55;2.67;2.67;0.00
73825;PMS5003;64145;55.060;73.168;2023-08-12T12:01:21;1.00;1.00;0.00
73825;PMS5003;64145;55.060;73.168;2023-08-12T12:03:52;0.00;0.00;0.00
73825;PMS5003;64145;55.060;73.168;2023-08-12T12:06:27;0.00;0.00;0.00
73825;PMS5003;64145;55.060;73.168;2023-08-12T12:08:53;0.00;0.00;0.00
73825;PMS5003;64145;55.060;73.168;2023-08-12T12:11:19;1.00;1.00;0.00
73825;PMS5003;64145;55.060;73.168;2023-08-12T12:13:45;0.33;0.33;0.00
73825;PMS5003;64145;55.060;73.168;2023-08-12T12:16:12;1.00;1.00;0.00
73825;PMS5003;64145;55.060;73.168;2023-08-12T12:18:47;1.00;0.00;0.00
73825;PMS5003;64145;55.060;73.168;2023-08-12T12:21:19;0.00;0.00;0.00
73825;PMS5003;64145;55.060;73.168;2023-08-12T12:23:45;0.00;0.00;0.00
73825;PMS5003;64145;55.060;73.168;2023-08-12T12:26:11;0.00;0.00;0.00
73825;PMS5003;64145;55.060;73.168;2023-08-12T12:28:37;0.00;0.00;0.00
73825;PMS5003;64145;55.060;73.168;2023-08-12T12:31:03;0.00;0.00;0.00
73825;PMS5003;64145;55.060;73.168;2023-08-12T12:33:28;0.00;0.00;0.00
73825;PMS5003;64145;55.060;73.168;2023-08-12T12:35:54;0.00;0.00;0.00
73825;PMS5003;64145;55.060;73.168;2023-08-12T12:38:20;0.00;0.00;0.00
73825;PMS5003;64145;55.060;73.168;2023-08-12T12:40:45;0.00;0.00;0.00
73825;PMS5003;64145;55.060;73.168;2023-08-12T12:43:11;0.00;0.00;0.00
73825;PMS5003;64145;55.060;73.168;2023-08-12T12:45:36;0.00;0.00;0.00
73825;PMS5003;64145;55.060;73.168;2023-08-12T12:48:02;0.00;0.00;0.00
73825;PMS5003;64145;55.060;73.168;2023-08-12T12:50:28;0.00;0.00;0.00
73825;PMS5003;64145;55.060;73.168;2023-08-12T12:52:53;0.00;0.00;0.00
73825;PMS5003;64145;55.060;73.168;2023-08-12T12:55:19;0.00;0.00;0.00
73825;PMS5003;64145;55.060;73.168;2023-08-12T12:57:45;0.50;0.00;0.00
73825;PMS5003;64145;55.060;73.168;2023-08-12T13:00:11;1.00;0.00;0.00
73825;PMS5003;64145;55.060;73.168;2023-08-12T13:02:37;0.00;0.00;0.00
73825;PMS5003;64145;55.060;73.168;2023-08-12T13:05:02;0.00;0.00;0.00
73825;PMS5003;64145;55.060;73.168;2023-08-12T13:07:28;1.00;0.00;0.00
73825;PMS5003;64145;55.060;73.168;2023-08-12T13:09:54;0.00;0.00;0.00
73825;PMS5003;64145;55.060;73.168;2023-08-12T13:12:19;0.00;0.00;0.00
73825;PMS5003;64145;55.060;73.168;2023-08-12T13:14:45;0.00;0.00;0.00
73825;PMS5003;64145;55.060;73.168;2023-08-12T13:17:10;0.00;0.00;0.00
73825;PMS5003;64145;55.060;73.168;2023-08-12T13:19:36;0.00;0.00;0.00
73825;PMS5003;64145;55.060;73.168;2023-08-12T13:22:01;0.00;0.00;0.00
73825;PMS5003;64145;55.060;73.168;2023-08-12T13:24:28;0.00;0.00;0.00
73825;PMS5003;64145;55.060;73.168;2023-08-12T13:26:53;0.00;0.00;0.00
73825;PMS5003;64145;55.060;73.168;2023-08-12T13:29:19;0.00;0.00;0.00
73825;PMS5003;64145;55.060;73.168;2023-08-12T13:31:45;0.00;0.00;0.00
73825;PMS5003;64145;55.060;73.168;2023-08-12T13:34:11;0.00;0.00;0.00
73825;PMS5003;64145;55.060;73.168;2023-08-12T13:36:37;0.00;0.00;0.00
73825;PMS5003;64145;55.060;73.168;2023-08-12T13:39:02;2.67;1.33;0.00
73825;PMS5003;64145;55.060;73.168;2023-08-12T13:41:28;8.00;7.00;1.67
73825;PMS5003;64145;55.060;73.168;2023-08-12T13:43:53;6.00;4.67;2.00
73825;PMS5003;64145;55.060;73.168;2023-08-12T13:46:19;4.00;3.00;1.00
73825;PMS5003;64145;55.060;73.168;2023-08-12T13:48:44;1.00;0.33;0.00
73825;PMS5003;64145;55.060;73.168;2023-08-12T13:51:10;0.00;0.00;0.00
73825;PMS5003;64145;55.060;73.168;2023-08-12T13:53:36;0.00;0.00;0.00
73825;PMS5003;64145;55.060;73.168;2023-08-12T13:56:02;0.00;0.00;0.00
73825;PMS5003;64145;55.060;73.168;2023-08-12T13:58:28;0.00;0.00;0.00
73825;PMS5003;64145;55.060;73.168;2023-08-12T14:00:53;0.00;0.00;0.00
73825;PMS5003;64145;55.060;73.168;2023-08-12T14:03:21;0.00;0.00;0.00
73825;PMS5003;64145;55.060;73.168;2023-08-12T14:05:47;0.00;0.00;0.00